sensor_id;sensor_type;location;lat;lon;timestamp;P1;durP1;ratioP1;P2;durP2;ratioP2
9160;SDS011;4615;51.340;8.288;2024-01-30T00:02:15;12.77;;;11.00;;
9160;SDS011;4615;51.340;8.288;2024-01-30T00:04:42;12.98;;;10.75;;
9160;SDS011;4615;51.340;8.288;2024-01-30T00:07:09;12.07;;;10.75;;
9160;SDS011;4615;51.340;8.288;2024-01-30T00:09:35;12.85;;;10.90;;
9160;SDS011;4615;51.340;8.288;2024-01-30T00:12:01;12.63;;;11.32;;
9160;SDS011;4615;51.340;8.288;2024-01-30T00:14:28;11.80;;;10.60;;
9160;SDS011;4615;51.340;8.288;2024-01-30T00:16:54;13.60;;;11.32;;
9160;SDS011;4615;51.340;8.288;2024-01-30T00:19:20;11.63;;;10.43;;
9160;SDS011;4615;51.340;8.288;2024-01-30T00:21:48;11.55;;;10.40;;
9160;SDS011;4615;51.340;8.288;2024-01-30T00:24:15;15.02;;;12.20;;
9160;SDS011;4615;51.340;8.288;2024-01-30T00:26:41;13.07;;;10.70;;
9160;SDS011;4615;51.340;8.288;2024-01-30T00:29:07;15.25;;;13.23;;
9160;SDS011;4615;51.340;8.288;2024-01-30T00:31:34;14.00;;;12.43;;
9160;SDS011;4615;51.340;8.288;2024-01-30T00:34:01;14.40;;;12.87;;
9160;SDS011;4615;51.340;8.288;2024-01-30T00:36:27;14.15;;;12.05;;
9160;SDS011;4615;51.340;8.288;2024-01-30T00:38:56;14.18;;;12.38;;
9160;SDS011;4615;51.340;8.288;2024-01-30T00:41:23;15.98;;;13.13;;
9160;SDS011;4615;51.340;8.288;2024-01-30T00:43:49;15.15;;;13.45;;
9160;SDS011;4615;51.340;8.288;2024-01-30T00:46:16;13.60;;;11.75;;
9160;SDS011;4615;51.340;8.288;2024-01-30T00:48:42;13.90;;;11.30;;
9160;SDS011;4615;51.340;8.288;2024-01-30T00:51:08;14.40;;;11.75;;
9160;SDS011;4615;51.340;8.288;2024-01-30T00:53:37;13.32;;;11.30;;
9160;SDS011;4615;51.340;8.288;2024-01-30T00:56:04;15.20;;;11.98;;
9160;SDS011;4615;51.340;8.288;2024-01-30T00:58:31;13.60;;;10.80;;
9160;SDS011;4615;51.340;8.288;2024-01-30T01:00:57;13.80;;;11.25;;
9160;SDS011;4615;51.340;8.288;2024-01-30T01:03:24;14.60;;;10.98;;
9160;SDS011;4615;51.340;8.288;2024-01-30T01:05:50;12.10;;;10.40;;
9160;SDS011;4615;51.340;8.288;2024-01-30T01:08:16;11.95;;;10.20;;
9160;SDS011;4615;51.340;8.288;2024-01-30T01:10:43;11.52;;;10.10;;
9160;SDS011;4615;51.340;8.288;2024-01-30T01:13:11;10.73;;;9.63;;
9160;SDS011;4615;51.340;8.288;2024-01-30T01:15:37;11.68;;;9.93;;
9160;SDS011;4615;51.340;8.288;2024-01-30T01:18:03;12.88;;;10.13;;
9160;SDS011;4615;51.340;8.288;2024-01-30T01:20:30;13.93;;;10.47;;
9160;SDS011;4615;51.340;8.288;2024-01-30T01:22:56;13.88;;;10.38;;
9160;SDS011;4615;51.340;8.288;2024-01-30T01:25:22;11.60;;;10.00;;
9160;SDS011;4615;51.340;8.288;2024-01-30T01:27:49;11.25;;;10.05;;
9160;SDS011;4615;51.340;8.288;2024-01-30T01:30:19;12.18;;;10.20;;
9160;SDS011;4615;51.340;8.288;2024-01-30T01:32:47;13.45;;;10.80;;
9160;SDS011;4615;51.340;8.288;2024-01-30T01:35:16;11.77;;;10.50;;
9160;SDS011;4615;51.340;8.288;2024-01-30T01:37:42;13.75;;;12.35;;
9160;SDS011;4615;51.340;8.288;2024-01-30T01:40:09;14.00;;;11.90;;
9160;SDS011;4615;51.340;8.288;2024-01-30T01:42:35;12.10;;;10.48;;
9160;SDS011;4615;51.340;8.288;2024-01-30T01:45:02;13.57;;;10.73;;
9160;SDS011;4615;51.340;8.288;2024-01-30T01:47:30;11.20;;;9.95;;
9160;SDS011;4615;51.340;8.288;2024-01-30T01:49:56;12.07;;;10.88;;
9160;SDS011;4615;51.340;8.288;2024-01-30T01:52:23;11.50;;;10.20;;
9160;SDS011;4615;51.340;8.288;2024-01-30T01:54:49;11.40;;;10.20;;
9160;SDS011;4615;51.340;8.288;2024-01-30T01:57:16;12.45;;;11.25;;
9160;SDS011;4615;51.340;8.288;2024-01-30T01:59:42;13.52;;;12.13;;
9160;SDS011;4615;51.340;8.288;2024-01-30T02:02:08;12.52;;;10.98;;
9160;SDS011;4615;51.340;8.288;2024-01-30T02:04:38;14.10;;;12.23;;
9160;SDS011;4615;51.340;8.288;2024-01-30T02:07:05;13.98;;;12.40;;
9160;SDS011;4615;51.340;8.288;2024-01-30T02:09:31;15.10;;;12.55;;
9160;SDS011;4615;51.340;8.288;2024-01-30T02:11:57;13.63;;;11.95;;
9160;SDS011;4615;51.340;8.288;2024-01-30T02:14:24;15.68;;;12.20;;
9160;SDS011;4615;51.340;8.288;2024-01-30T02:16:50;13.38;;;11.98;;
9160;SDS011;4615;51.340;8.288;2024-01-30T02:19:16;13.60;;;11.95;;
9160;SDS011;4615;51.340;8.288;2024-01-30T02:21:44;14.23;;;12.52;;
9160;SDS011;4615;51.340;8.288;2024-01-30T02:24:11;13.57;;;12.18;;
9160;SDS011;4615;51.340;8.288;2024-01-30T02:26:37;14.70;;;12.70;;
9160;SDS011;4615;51.340;8.288;2024-01-30T02:29:04;15.60;;;13.27;;
9160;SDS011;4615;51.340;8.288;2024-01-30T02:31:30;13.48;;;12.07;;
9160;SDS011;4615;51.340;8.288;2024-01-30T02:33:56;14.20;;;12.80;;
9160;SDS011;4615;51.340;8.288;2024-01-30T02:36:23;15.13;;;13.63;;
9160;SDS011;4615;51.340;8.288;2024-01-30T02:38:50;15.88;;;14.10;;
9160;SDS011;4615;51.340;8.288;2024-01-30T02:41:17;16.00;;;14.30;;
9160;SDS011;4615;51.340;8.288;2024-01-30T02:43:43;16.17;;;14.48;;
9160;SDS011;4615;51.340;8.288;2024-01-30T02:46:09;16.38;;;14.60;;
9160;SDS011;4615;51.340;8.288;2024-01-30T02:48:36;15.73;;;14.02;;
9160;SDS011;4615;51.340;8.288;2024-01-30T02:51:04;15.82;;;14.20;;
9160;SDS011;4615;51.340;8.288;2024-01-30T02:53:30;17.67;;;15.77;;
9160;SDS011;4615;51.340;8.288;2024-01-30T02:55:58;17.80;;;15.95;;
9160;SDS011;4615;51.340;8.288;2024-01-30T02:58:24;16.65;;;14.85;;
9160;SDS011;4615;51.340;8.288;2024-01-30T03:00:50;16.83;;;15.03;;
9160;SDS011;4615;51.340;8.288;2024-01-30T03:03:17;17.10;;;15.30;;
9160;SDS011;4615;51.340;8.288;2024-01-30T03:05:43;17.73;;;15.55;;
9160;SDS011;4615;51.340;8.288;2024-01-30T03:08:09;17.70;;;15.90;;
9160;SDS011;4615;51.340;8.288;2024-01-30T03:10:36;17.98;;;16.08;;
9160;SDS011;4615;51.340;8.288;2024-01-30T03:13:04;18.42;;;16.35;;
9160;SDS011;4615;51.340;8.288;2024-01-30T03:15:30;18.77;;;16.42;;
9160;SDS011;4615;51.340;8.288;2024-01-30T03:17:57;17.50;;;15.80;;
9160;SDS011;4615;51.340;8.288;2024-01-30T03:20:23;17.50;;;15.60;;
9160;SDS011;4615;51.340;8.288;2024-01-30T03:22:50;18.17;;;15.05;;
9160;SDS011;4615;51.340;8.288;2024-01-30T03:25:16;17.80;;;15.90;;
9160;SDS011;4615;51.340;8.288;2024-01-30T03:27:43;17.60;;;15.35;;
9160;SDS011;4615;51.340;8.288;2024-01-30T03:30:10;16.92;;;15.13;;
9160;SDS011;4615;51.340;8.288;2024-01-30T03:32:37;16.05;;;14.30;;
9160;SDS011;4615;51.340;8.288;2024-01-30T03:35:03;17.90;;;14.80;;
9160;SDS011;4615;51.340;8.288;2024-01-30T03:37:30;16.02;;;14.32;;
9160;SDS011;4615;51.340;8.288;2024-01-30T03:39:56;16.05;;;14.15;;
9160;SDS011;4615;51.340;8.288;2024-01-30T03:42:22;15.80;;;13.98;;
9160;SDS011;4615;51.340;8.288;2024-01-30T03:44:49;15.00;;;13.40;;
9160;SDS011;4615;51.340;8.288;2024-01-30T03:47:18;14.98;;;13.38;;
9160;SDS011;4615;51.340;8.288;2024-01-30T03:49:44;15.93;;;13.93;;
9160;SDS011;4615;51.340;8.288;2024-01-30T03:52:11;15.43;;;13.88;;
9160;SDS011;4615;51.340;8.288;2024-01-30T03:54:37;15.70;;;14.00;;
9160;SDS011;4615;51.340;8.288;2024-01-30T03:57:03;15.98;;;14.27;;
9160;SDS011;4615;51.340;8.288;2024-01-30T03:59:30;16.75;;;14.98;;
9160;SDS011;4615;51.340;8.288;2024-01-30T04:01:57;16.27;;;14.60;;
9160;SDS011;4615;51.340;8.288;2024-01-30T04:04:24;15.70;;;14.10;;
9160;SDS011;4615;51.340;8.288;2024-01-30T04:06:51;16.27;;;14.35;;
9160;SDS011;4615;51.340;8.288;2024-01-30T04:09:17;18.17;;;14.50;;
9160;SDS011;4615;51.340;8.288;2024-01-30T04:11:43;16.38;;;14.77;;
9160;SDS011;4615;51.340;8.288;2024-01-30T04:14:10;16.73;;;14.50;;
9160;SDS011;4615;51.340;8.288;2024-01-30T04:16:36;15.80;;;14.30;;
9160;SDS011;4615;51.340;8.288;2024-01-30T04:19:03;16.98;;;14.55;;
9160;SDS011;4615;51.340;8.288;2024-01-30T04:21:30;14.85;;;13.35;;
9160;SDS011;4615;51.340;8.288;2024-01-30T04:23:57;16.08;;;14.27;;
9160;SDS011;4615;51.340;8.288;2024-01-30T04:26:24;14.90;;;13.30;;
9160;SDS011;4615;51.340;8.288;2024-01-30T04:28:50;14.85;;;13.30;;
9160;SDS011;4615;51.340;8.288;2024-01-30T04:31:16;15.77;;;13.60;;
9160;SDS011;4615;51.340;8.288;2024-01-30T04:33:43;15.20;;;13.35;;
9160;SDS011;4615;51.340;8.288;2024-01-30T04:36:09;15.13;;;13.55;;
9160;SDS011;4615;51.340;8.288;2024-01-30T04:38:37;15.27;;;12.90;;
9160;SDS011;4615;51.340;8.288;2024-01-30T04:41:04;15.32;;;13.77;;
9160;SDS011;4615;51.340;8.288;2024-01-30T04:43:30;15.02;;;12.95;;
9160;SDS011;4615;51.340;8.288;2024-01-30T04:45:56;15.00;;;12.88;;
9160;SDS011;4615;51.340;8.288;2024-01-30T04:48:23;14.10;;;12.70;;
9160;SDS011;4615;51.340;8.288;2024-01-30T04:50:49;14.23;;;12.73;;
9160;SDS011;4615;51.340;8.288;2024-01-30T04:53:15;15.60;;;13.88;;
9160;SDS011;4615;51.340;8.288;2024-01-30T04:55:43;15.75;;;14.00;;
9160;SDS011;4615;51.340;8.288;2024-01-30T04:58:09;14.40;;;12.98;;
9160;SDS011;4615;51.340;8.288;2024-01-30T05:00:36;15.70;;;13.27;;
9160;SDS011;4615;51.340;8.288;2024-01-30T05:03:02;15.68;;;14.00;;
9160;SDS011;4615;51.340;8.288;2024-01-30T05:05:29;15.63;;;12.80;;
9160;SDS011;4615;51.340;8.288;2024-01-30T05:07:55;16.80;;;13.93;;
9160;SDS011;4615;51.340;8.288;2024-01-30T05:10:21;16.55;;;14.75;;
9160;SDS011;4615;51.340;8.288;2024-01-30T05:12:49;15.40;;;13.75;;
9160;SDS011;4615;51.340;8.288;2024-01-30T05:15:16;14.05;;;12.65;;
9160;SDS011;4615;51.340;8.288;2024-01-30T05:17:42;16.02;;;14.10;;
9160;SDS011;4615;51.340;8.288;2024-01-30T05:20:09;16.05;;;14.35;;
9160;SDS011;4615;51.340;8.288;2024-01-30T05:22:36;16.98;;;14.60;;
9160;SDS011;4615;51.340;8.288;2024-01-30T05:25:02;17.83;;;14.15;;
9160;SDS011;4615;51.340;8.288;2024-01-30T05:27:29;16.88;;;14.25;;
9160;SDS011;4615;51.340;8.288;2024-01-30T05:29:56;15.50;;;13.32;;
9160;SDS011;4615;51.340;8.288;2024-01-30T05:32:23;15.32;;;13.73;;
9160;SDS011;4615;51.340;8.288;2024-01-30T05:34:49;14.23;;;12.82;;
9160;SDS011;4615;51.340;8.288;2024-01-30T05:37:16;14.43;;;12.35;;
9160;SDS011;4615;51.340;8.288;2024-01-30T05:39:42;13.25;;;11.95;;
9160;SDS011;4615;51.340;8.288;2024-01-30T05:42:09;13.27;;;11.85;;
9160;SDS011;4615;51.340;8.288;2024-01-30T05:44:36;14.23;;;12.70;;
9160;SDS011;4615;51.340;8.288;2024-01-30T05:47:03;13.93;;;12.38;;
9160;SDS011;4615;51.340;8.288;2024-01-30T05:49:30;13.43;;;12.10;;
9160;SDS011;4615;51.340;8.288;2024-01-30T05:51:56;14.13;;;12.63;;
9160;SDS011;4615;51.340;8.288;2024-01-30T05:54:22;14.82;;;12.80;;
9160;SDS011;4615;51.340;8.288;2024-01-30T05:56:49;13.15;;;11.80;;
9160;SDS011;4615;51.340;8.288;2024-01-30T05:59:15;14.00;;;11.80;;
9160;SDS011;4615;51.340;8.288;2024-01-30T06:01:45;14.07;;;12.57;;
9160;SDS011;4615;51.340;8.288;2024-01-30T06:04:13;13.40;;;12.00;;
9160;SDS011;4615;51.340;8.288;2024-01-30T06:06:39;12.50;;;10.95;;
9160;SDS011;4615;51.340;8.288;2024-01-30T06:09:05;13.00;;;11.60;;
9160;SDS011;4615;51.340;8.288;2024-01-30T06:11:34;13.35;;;11.63;;
9160;SDS011;4615;51.340;8.288;2024-01-30T06:14:00;14.20;;;11.57;;
9160;SDS011;4615;51.340;8.288;2024-01-30T06:16:27;13.43;;;11.50;;
9160;SDS011;4615;51.340;8.288;2024-01-30T06:18:54;27.33;;;20.20;;
9160;SDS011;4615;51.340;8.288;2024-01-30T06:21:22;23.50;;;18.20;;
9160;SDS011;4615;51.340;8.288;2024-01-30T06:23:48;39.20;;;28.30;;
9160;SDS011;4615;51.340;8.288;2024-01-30T06:26:15;57.60;;;41.17;;
9160;SDS011;4615;51.340;8.288;2024-01-30T06:28:41;62.22;;;44.97;;
9160;SDS011;4615;51.340;8.288;2024-01-30T06:31:07;65.45;;;51.97;;
9160;SDS011;4615;51.340;8.288;2024-01-30T06:33:34;55.13;;;43.90;;
9160;SDS011;4615;51.340;8.288;2024-01-30T06:36:00;48.58;;;42.00;;
9160;SDS011;4615;51.340;8.288;2024-01-30T06:38:28;45.35;;;38.42;;
9160;SDS011;4615;51.340;8.288;2024-01-30T06:40:54;42.75;;;36.42;;
9160;SDS011;4615;51.340;8.288;2024-01-30T06:43:21;39.78;;;35.58;;
9160;SDS011;4615;51.340;8.288;2024-01-30T06:45:48;40.03;;;35.75;;
9160;SDS011;4615;51.340;8.288;2024-01-30T06:48:15;40.95;;;36.47;;
9160;SDS011;4615;51.340;8.288;2024-01-30T06:50:42;37.63;;;33.65;;
9160;SDS011;4615;51.340;8.288;2024-01-30T06:53:08;35.83;;;31.90;;
9160;SDS011;4615;51.340;8.288;2024-01-30T06:55:36;31.65;;;28.35;;
9160;SDS011;4615;51.340;8.288;2024-01-30T06:58:02;24.20;;;21.50;;
9160;SDS011;4615;51.340;8.288;2024-01-30T07:00:28;22.27;;;19.88;;
9160;SDS011;4615;51.340;8.288;2024-01-30T07:02:55;22.75;;;20.33;;
9160;SDS011;4615;51.340;8.288;2024-01-30T07:05:22;23.38;;;20.98;;
9160;SDS011;4615;51.340;8.288;2024-01-30T07:07:48;23.30;;;20.90;;
9160;SDS011;4615;51.340;8.288;2024-01-30T07:10:14;22.10;;;19.77;;
9160;SDS011;4615;51.340;8.288;2024-01-30T07:12:42;21.23;;;19.00;;
9160;SDS011;4615;51.340;8.288;2024-01-30T07:15:09;19.60;;;17.23;;
9160;SDS011;4615;51.340;8.288;2024-01-30T07:17:35;18.45;;;16.45;;
9160;SDS011;4615;51.340;8.288;2024-01-30T07:20:02;16.90;;;14.68;;
9160;SDS011;4615;51.340;8.288;2024-01-30T07:22:29;15.70;;;13.60;;
9160;SDS011;4615;51.340;8.288;2024-01-30T07:24:56;14.93;;;12.98;;
9160;SDS011;4615;51.340;8.288;2024-01-30T07:27:22;14.65;;;13.18;;
9160;SDS011;4615;51.340;8.288;2024-01-30T07:29:50;14.15;;;12.65;;
9160;SDS011;4615;51.340;8.288;2024-01-30T07:32:16;18.10;;;13.82;;
9160;SDS011;4615;51.340;8.288;2024-01-30T07:34:43;17.00;;;14.15;;
9160;SDS011;4615;51.340;8.288;2024-01-30T07:37:11;15.10;;;13.10;;
9160;SDS011;4615;51.340;8.288;2024-01-30T07:39:40;13.70;;;12.30;;
9160;SDS011;4615;51.340;8.288;2024-01-30T07:42:07;15.70;;;14.10;;
9160;SDS011;4615;51.340;8.288;2024-01-30T07:44:33;14.30;;;12.80;;
9160;SDS011;4615;51.340;8.288;2024-01-30T07:47:01;15.50;;;14.00;;
9160;SDS011;4615;51.340;8.288;2024-01-30T07:49:28;15.75;;;14.05;;
9160;SDS011;4615;51.340;8.288;2024-01-30T07:51:54;15.60;;;14.10;;
9160;SDS011;4615;51.340;8.288;2024-01-30T07:54:20;17.67;;;15.20;;
9160;SDS011;4615;51.340;8.288;2024-01-30T07:56:47;17.15;;;15.35;;
9160;SDS011;4615;51.340;8.288;2024-01-30T07:59:13;16.65;;;14.75;;
9160;SDS011;4615;51.340;8.288;2024-01-30T08:01:40;21.50;;;19.20;;
9160;SDS011;4615;51.340;8.288;2024-01-30T08:04:07;22.45;;;18.92;;
9160;SDS011;4615;51.340;8.288;2024-01-30T08:06:34;22.55;;;19.70;;
9160;SDS011;4615;51.340;8.288;2024-01-30T08:09:00;19.70;;;17.58;;
9160;SDS011;4615;51.340;8.288;2024-01-30T08:11:26;17.25;;;14.52;;
9160;SDS011;4615;51.340;8.288;2024-01-30T08:13:54;16.98;;;15.18;;
9160;SDS011;4615;51.340;8.288;2024-01-30T08:16:21;16.67;;;14.90;;
9160;SDS011;4615;51.340;8.288;2024-01-30T08:18:47;18.20;;;14.70;;
9160;SDS011;4615;51.340;8.288;2024-01-30T08:21:15;14.07;;;12.55;;
9160;SDS011;4615;51.340;8.288;2024-01-30T08:23:41;17.35;;;14.02;;
9160;SDS011;4615;51.340;8.288;2024-01-30T08:26:08;14.95;;;13.18;;
9160;SDS011;4615;51.340;8.288;2024-01-30T08:28:34;19.83;;;15.90;;
9160;SDS011;4615;51.340;8.288;2024-01-30T08:31:01;17.53;;;15.73;;
9160;SDS011;4615;51.340;8.288;2024-01-30T08:33:27;15.60;;;13.98;;
9160;SDS011;4615;51.340;8.288;2024-01-30T08:35:54;14.95;;;13.45;;
9160;SDS011;4615;51.340;8.288;2024-01-30T08:38:21;13.13;;;11.82;;
9160;SDS011;4615;51.340;8.288;2024-01-30T08:40:48;11.50;;;10.35;;
9160;SDS011;4615;51.340;8.288;2024-01-30T08:43:14;12.70;;;11.50;;
9160;SDS011;4615;51.340;8.288;2024-01-30T08:45:40;14.93;;;13.43;;
9160;SDS011;4615;51.340;8.288;2024-01-30T08:48:07;15.93;;;13.25;;
9160;SDS011;4615;51.340;8.288;2024-01-30T08:50:34;12.98;;;11.57;;
9160;SDS011;4615;51.340;8.288;2024-01-30T08:53:00;12.80;;;11.50;;
9160;SDS011;4615;51.340;8.288;2024-01-30T08:55:29;17.38;;;15.27;;
9160;SDS011;4615;51.340;8.288;2024-01-30T08:57:56;15.40;;;13.93;;
9160;SDS011;4615;51.340;8.288;2024-01-30T09:00:22;15.63;;;13.10;;
9160;SDS011;4615;51.340;8.288;2024-01-30T09:02:48;12.77;;;11.38;;
9160;SDS011;4615;51.340;8.288;2024-01-30T09:05:15;12.40;;;10.60;;
9160;SDS011;4615;51.340;8.288;2024-01-30T09:07:41;13.63;;;11.80;;
9160;SDS011;4615;51.340;8.288;2024-01-30T09:10:08;13.98;;;12.25;;
9160;SDS011;4615;51.340;8.288;2024-01-30T09:12:36;14.25;;;12.23;;
9160;SDS011;4615;51.340;8.288;2024-01-30T09:15:03;11.98;;;10.40;;
9160;SDS011;4615;51.340;8.288;2024-01-30T09:17:29;12.93;;;10.10;;
9160;SDS011;4615;51.340;8.288;2024-01-30T09:19:56;8.93;;;8.05;;
9160;SDS011;4615;51.340;8.288;2024-01-30T09:22:22;9.50;;;8.30;;
9160;SDS011;4615;51.340;8.288;2024-01-30T09:24:48;10.27;;;9.23;;
9160;SDS011;4615;51.340;8.288;2024-01-30T09:27:15;18.50;;;15.50;;
9160;SDS011;4615;51.340;8.288;2024-01-30T09:29:43;17.23;;;14.60;;
9160;SDS011;4615;51.340;8.288;2024-01-30T09:32:09;16.13;;;13.77;;
9160;SDS011;4615;51.340;8.288;2024-01-30T09:34:35;17.30;;;14.15;;
9160;SDS011;4615;51.340;8.288;2024-01-30T09:37:02;18.25;;;13.32;;
9160;SDS011;4615;51.340;8.288;2024-01-30T09:39:28;16.02;;;12.55;;
9160;SDS011;4615;51.340;8.288;2024-01-30T09:41:55;16.63;;;11.93;;
9160;SDS011;4615;51.340;8.288;2024-01-30T09:44:27;14.50;;;11.95;;
9160;SDS011;4615;51.340;8.288;2024-01-30T09:46:57;12.73;;;10.98;;
9160;SDS011;4615;51.340;8.288;2024-01-30T09:49:29;9.95;;;8.95;;
9160;SDS011;4615;51.340;8.288;2024-01-30T09:51:55;10.18;;;9.18;;
9160;SDS011;4615;51.340;8.288;2024-01-30T09:54:22;10.90;;;9.70;;
9160;SDS011;4615;51.340;8.288;2024-01-30T09:56:49;9.77;;;8.77;;
9160;SDS011;4615;51.340;8.288;2024-01-30T09:59:15;11.33;;;9.63;;
9160;SDS011;4615;51.340;8.288;2024-01-30T10:01:42;12.30;;;10.82;;
9160;SDS011;4615;51.340;8.288;2024-01-30T10:04:10;14.88;;;12.60;;
9160;SDS011;4615;51.340;8.288;2024-01-30T10:06:37;14.25;;;10.95;;
9160;SDS011;4615;51.340;8.288;2024-01-30T10:09:03;12.90;;;10.55;;
9160;SDS011;4615;51.340;8.288;2024-01-30T10:11:30;10.43;;;9.27;;
9160;SDS011;4615;51.340;8.288;2024-01-30T10:13:56;10.90;;;9.30;;
9160;SDS011;4615;51.340;8.288;2024-01-30T10:16:22;15.95;;;13.10;;
9160;SDS011;4615;51.340;8.288;2024-01-30T10:18:49;13.63;;;10.73;;
9160;SDS011;4615;51.340;8.288;2024-01-30T10:21:16;11.38;;;9.70;;
9160;SDS011;4615;51.340;8.288;2024-01-30T10:23:43;9.43;;;7.90;;
9160;SDS011;4615;51.340;8.288;2024-01-30T10:26:09;11.82;;;9.35;;
9160;SDS011;4615;51.340;8.288;2024-01-30T10:28:36;11.88;;;9.15;;
9160;SDS011;4615;51.340;8.288;2024-01-30T10:31:02;12.23;;;9.35;;
9160;SDS011;4615;51.340;8.288;2024-01-30T10:33:29;9.52;;;7.90;;
9160;SDS011;4615;51.340;8.288;2024-01-30T10:35:56;7.72;;;6.88;;
9160;SDS011;4615;51.340;8.288;2024-01-30T10:38:28;7.80;;;7.00;;
9160;SDS011;4615;51.340;8.288;2024-01-30T10:40:55;9.07;;;7.47;;
9160;SDS011;4615;51.340;8.288;2024-01-30T10:43:22;8.63;;;7.17;;
9160;SDS011;4615;51.340;8.288;2024-01-30T10:45:49;7.88;;;7.07;;
9160;SDS011;4615;51.340;8.288;2024-01-30T10:48:16;7.77;;;6.97;;
9160;SDS011;4615;51.340;8.288;2024-01-30T10:50:42;7.80;;;6.47;;
9160;SDS011;4615;51.340;8.288;2024-01-30T10:53:09;8.40;;;6.85;;
9160;SDS011;4615;51.340;8.288;2024-01-30T10:55:38;7.53;;;6.25;;
9160;SDS011;4615;51.340;8.288;2024-01-30T10:58:04;7.00;;;6.25;;
9160;SDS011;4615;51.340;8.288;2024-01-30T11:00:31;6.18;;;5.57;;
9160;SDS011;4615;51.340;8.288;2024-01-30T11:02:59;6.97;;;5.80;;
9160;SDS011;4615;51.340;8.288;2024-01-30T11:05:26;6.93;;;5.22;;
9160;SDS011;4615;51.340;8.288;2024-01-30T11:07:54;7.15;;;5.30;;
9160;SDS011;4615;51.340;8.288;2024-01-30T11:10:20;7.47;;;5.57;;
9160;SDS011;4615;51.340;8.288;2024-01-30T11:12:48;7.50;;;5.37;;
9160;SDS011;4615;51.340;8.288;2024-01-30T11:15:16;5.88;;;5.05;;
9160;SDS011;4615;51.340;8.288;2024-01-30T11:17:44;7.13;;;5.33;;
9160;SDS011;4615;51.340;8.288;2024-01-30T11:20:10;6.33;;;5.37;;
9160;SDS011;4615;51.340;8.288;2024-01-30T11:22:40;7.13;;;5.35;;
9160;SDS011;4615;51.340;8.288;2024-01-30T11:25:06;6.00;;;5.20;;
9160;SDS011;4615;51.340;8.288;2024-01-30T11:27:37;5.30;;;4.80;;
9160;SDS011;4615;51.340;8.288;2024-01-30T11:30:05;5.43;;;4.93;;
9160;SDS011;4615;51.340;8.288;2024-01-30T11:32:33;6.43;;;5.22;;
9160;SDS011;4615;51.340;8.288;2024-01-30T11:34:59;6.38;;;5.13;;
9160;SDS011;4615;51.340;8.288;2024-01-30T11:37:25;6.85;;;5.10;;
9160;SDS011;4615;51.340;8.288;2024-01-30T11:39:52;7.32;;;5.43;;
9160;SDS011;4615;51.340;8.288;2024-01-30T11:42:19;7.28;;;5.45;;
9160;SDS011;4615;51.340;8.288;2024-01-30T11:44:46;5.75;;;5.20;;
9160;SDS011;4615;51.340;8.288;2024-01-30T11:47:14;6.00;;;5.22;;
9160;SDS011;4615;51.340;8.288;2024-01-30T11:49:40;6.75;;;5.47;;
9160;SDS011;4615;51.340;8.288;2024-01-30T11:52:07;5.95;;;5.28;;
9160;SDS011;4615;51.340;8.288;2024-01-30T11:54:34;5.85;;;5.20;;
9160;SDS011;4615;51.340;8.288;2024-01-30T11:57:00;5.97;;;5.05;;
9160;SDS011;4615;51.340;8.288;2024-01-30T11:59:26;6.60;;;5.18;;
9160;SDS011;4615;51.340;8.288;2024-01-30T12:01:53;6.50;;;5.47;;
9160;SDS011;4615;51.340;8.288;2024-01-30T12:04:20;7.05;;;5.32;;
9160;SDS011;4615;51.340;8.288;2024-01-30T12:06:50;6.82;;;5.25;;
9160;SDS011;4615;51.340;8.288;2024-01-30T12:09:16;6.27;;;5.13;;
9160;SDS011;4615;51.340;8.288;2024-01-30T12:11:43;6.97;;;5.13;;
9160;SDS011;4615;51.340;8.288;2024-01-30T12:14:10;6.10;;;5.40;;
9160;SDS011;4615;51.340;8.288;2024-01-30T12:16:37;5.80;;;5.13;;
9160;SDS011;4615;51.340;8.288;2024-01-30T12:19:03;6.40;;;5.38;;
9160;SDS011;4615;51.340;8.288;2024-01-30T12:21:31;6.70;;;5.40;;
9160;SDS011;4615;51.340;8.288;2024-01-30T12:23:57;5.80;;;4.97;;
9160;SDS011;4615;51.340;8.288;2024-01-30T12:26:24;6.05;;;4.97;;
9160;SDS011;4615;51.340;8.288;2024-01-30T12:28:53;6.65;;;5.05;;
9160;SDS011;4615;51.340;8.288;2024-01-30T12:31:25;5.65;;;4.95;;
9160;SDS011;4615;51.340;8.288;2024-01-30T12:33:51;7.37;;;5.13;;
9160;SDS011;4615;51.340;8.288;2024-01-30T12:36:18;7.95;;;5.00;;
9160;SDS011;4615;51.340;8.288;2024-01-30T12:38:46;7.28;;;5.07;;
9160;SDS011;4615;51.340;8.288;2024-01-30T12:41:12;6.43;;;5.63;;
9160;SDS011;4615;51.340;8.288;2024-01-30T12:43:39;7.00;;;5.60;;
9160;SDS011;4615;51.340;8.288;2024-01-30T12:46:05;8.02;;;5.43;;
9160;SDS011;4615;51.340;8.288;2024-01-30T12:48:32;7.60;;;5.40;;
9160;SDS011;4615;51.340;8.288;2024-01-30T12:50:58;5.88;;;5.22;;
9160;SDS011;4615;51.340;8.288;2024-01-30T12:53:24;6.38;;;5.30;;
9160;SDS011;4615;51.340;8.288;2024-01-30T12:55:52;7.13;;;5.22;;
9160;SDS011;4615;51.340;8.288;2024-01-30T12:58:19;7.35;;;5.63;;
9160;SDS011;4615;51.340;8.288;2024-01-30T13:00:45;6.80;;;5.63;;
9160;SDS011;4615;51.340;8.288;2024-01-30T13:03:12;7.60;;;5.78;;
9160;SDS011;4615;51.340;8.288;2024-01-30T13:05:39;7.57;;;5.77;;
9160;SDS011;4615;51.340;8.288;2024-01-30T13:08:05;7.05;;;5.60;;
9160;SDS011;4615;51.340;8.288;2024-01-30T13:10:31;6.10;;;5.35;;
9160;SDS011;4615;51.340;8.288;2024-01-30T13:12:59;6.97;;;5.40;;
9160;SDS011;4615;51.340;8.288;2024-01-30T13:15:25;6.95;;;5.75;;
9160;SDS011;4615;51.340;8.288;2024-01-30T13:17:52;6.50;;;5.72;;
9160;SDS011;4615;51.340;8.288;2024-01-30T13:20:19;6.32;;;5.32;;
9160;SDS011;4615;51.340;8.288;2024-01-30T13:22:46;7.13;;;5.60;;
9160;SDS011;4615;51.340;8.288;2024-01-30T13:25:13;6.65;;;5.63;;
9160;SDS011;4615;51.340;8.288;2024-01-30T13:27:40;6.63;;;5.93;;
9160;SDS011;4615;51.340;8.288;2024-01-30T13:30:08;7.57;;;6.00;;
9160;SDS011;4615;51.340;8.288;2024-01-30T13:32:35;6.28;;;5.45;;
9160;SDS011;4615;51.340;8.288;2024-01-30T13:35:01;8.40;;;5.75;;
9160;SDS011;4615;51.340;8.288;2024-01-30T13:37:28;8.30;;;5.82;;
9160;SDS011;4615;51.340;8.288;2024-01-30T13:39:54;7.47;;;5.60;;
9160;SDS011;4615;51.340;8.288;2024-01-30T13:42:21;7.50;;;5.60;;
9160;SDS011;4615;51.340;8.288;2024-01-30T13:44:48;6.43;;;5.15;;
9160;SDS011;4615;51.340;8.288;2024-01-30T13:47:16;6.18;;;5.47;;
9160;SDS011;4615;51.340;8.288;2024-01-30T13:49:44;8.88;;;5.60;;
9160;SDS011;4615;51.340;8.288;2024-01-30T13:52:10;6.60;;;5.45;;
9160;SDS011;4615;51.340;8.288;2024-01-30T13:54:36;7.63;;;5.95;;
9160;SDS011;4615;51.340;8.288;2024-01-30T13:57:03;8.60;;;5.97;;
9160;SDS011;4615;51.340;8.288;2024-01-30T13:59:29;7.93;;;5.88;;
9160;SDS011;4615;51.340;8.288;2024-01-30T14:01:55;6.82;;;5.78;;
9160;SDS011;4615;51.340;8.288;2024-01-30T14:04:23;7.88;;;6.07;;
9160;SDS011;4615;51.340;8.288;2024-01-30T14:06:49;7.03;;;5.75;;
9160;SDS011;4615;51.340;8.288;2024-01-30T14:09:16;7.97;;;6.18;;
9160;SDS011;4615;51.340;8.288;2024-01-30T14:11:42;9.00;;;6.18;;
9160;SDS011;4615;51.340;8.288;2024-01-30T14:14:09;8.20;;;5.85;;
9160;SDS011;4615;51.340;8.288;2024-01-30T14:16:35;8.30;;;6.07;;
9160;SDS011;4615;51.340;8.288;2024-01-30T14:19:01;8.77;;;6.37;;
9160;SDS011;4615;51.340;8.288;2024-01-30T14:21:29;8.48;;;6.40;;
9160;SDS011;4615;51.340;8.288;2024-01-30T14:23:55;7.80;;;6.38;;
9160;SDS011;4615;51.340;8.288;2024-01-30T14:26:22;8.03;;;6.20;;
9160;SDS011;4615;51.340;8.288;2024-01-30T14:28:48;8.60;;;6.18;;
9160;SDS011;4615;51.340;8.288;2024-01-30T14:31:15;8.57;;;6.47;;
9160;SDS011;4615;51.340;8.288;2024-01-30T14:33:43;7.32;;;6.22;;
9160;SDS011;4615;51.340;8.288;2024-01-30T14:36:10;7.15;;;6.28;;
9160;SDS011;4615;51.340;8.288;2024-01-30T14:38:37;8.57;;;6.63;;
9160;SDS011;4615;51.340;8.288;2024-01-30T14:41:04;7.95;;;6.40;;
9160;SDS011;4615;51.340;8.288;2024-01-30T14:43:31;9.65;;;6.32;;
9160;SDS011;4615;51.340;8.288;2024-01-30T14:45:57;9.05;;;6.57;;
9160;SDS011;4615;51.340;8.288;2024-01-30T14:48:23;7.90;;;6.45;;
9160;SDS011;4615;51.340;8.288;2024-01-30T14:50:50;7.78;;;6.30;;
9160;SDS011;4615;51.340;8.288;2024-01-30T14:53:16;9.35;;;6.57;;
9160;SDS011;4615;51.340;8.288;2024-01-30T14:55:44;7.57;;;6.50;;